Time;durP1;ratioP1;P1;durP2;ratioP2;P2;SDS_P1;SDS_P2;PMS_P1;PMS_P2;Temp;Humidity;BMP_temperature;BMP_pressure;BME280_temperature;BME280_humidity;BME280_pressure;Samples;Min_cycle;Max_cycle;Signal;HPM_P1;HPM_P2
2022/09/18 00:00:47;;;;;;;;;8.75;8.75;;;;;13.61;48.68;101817.63;5006261;28;45281;-91
2022/09/18 00:03:12;;;;;;;;;7.00;7.00;;;;;13.61;48.59;101812.34;5024226;28;46184;-89
2022/09/18 00:05:38;;;;;;;;;6.50;6.50;;;;;13.64;48.91;101817.63;5008473;28;45608;-90
2022/09/18 00:08:04;;;;;;;;;10.25;9.00;;;;;13.60;48.95;101803.50;5008125;28;45451;-89
2022/09/18 00:10:29;;;;;;;;;6.00;5.00;;;;;13.68;48.95;101828.22;5005684;28;45616;-89
2022/09/18 00:12:55;;;;;;;;;6.00;6.00;;;;;13.60;48.62;101815.84;5006095;28;45496;-90
2022/09/18 00:15:20;;;;;;;;;7.00;7.00;;;;;13.62;49.00;101814.09;5005860;28;46369;-91
2022/09/18 00:17:46;;;;;;;;;6.00;5.25;;;;;13.62;49.23;101822.91;5006858;28;45498;-91
2022/09/18 00:20:12;;;;;;;;;7.50;6.75;;;;;13.58;49.31;101817.59;5005813;28;45520;-91
2022/09/18 00:22:39;;;;;;;;;7.25;6.00;;;;;13.50;49.36;101801.75;5005708;28;47126;-91
2022/09/18 00:25:06;;;;;;;;;8.50;5.75;;;;;13.53;49.22;101806.16;5007387;28;45190;-91
2022/09/18 00:27:31;;;;;;;;;6.00;6.00;;;;;13.56;49.50;101814.97;5023061;28;45262;-91
2022/09/18 00:29:57;;;;;;;;;6.00;6.00;;;;;13.51;49.96;101805.28;5010704;28;45386;-90
2022/09/18 00:32:22;;;;;;;;;7.00;5.50;;;;;13.49;49.53;101809.66;5026369;28;47160;-90
2022/09/18 00:34:47;;;;;;;;;4.25;4.25;;;;;13.46;49.32;101810.53;5024413;28;44745;-90
2022/09/18 00:37:13;;;;;;;;;6.25;6.25;;;;;13.48;49.56;101816.72;5011901;28;45400;-90
2022/09/18 00:39:39;;;;;;;;;6.25;5.25;;;;;13.43;49.79;101807.91;5008523;28;45459;-91
2022/09/18 00:42:05;;;;;;;;;6.50;5.50;;;;;13.47;49.58;101817.59;5024338;28;45600;-91
2022/09/18 00:44:45;;;;;;;;;7.00;5.00;;;;;13.41;49.65;101813.16;5005155;28;45520;-90
2022/09/18 00:47:11;;;;;;;;;7.75;5.00;;;;;13.42;49.31;101822.91;5004365;28;45261;-90
2022/09/18 00:50:06;;;;;;;;;7.50;6.50;;;;;13.36;49.82;101814.03;5004968;28;45608;-90
2022/09/18 00:52:45;;;;;;;;;7.25;6.50;;;;;13.35;49.97;101814.94;4999014;28;47101;-90
2022/09/18 00:55:12;;;;;;;;;8.50;6.75;;;;;13.33;49.57;101812.28;5013994;28;45347;-91
2022/09/18 00:57:44;;;;;;;;;6.50;6.50;;;;;13.32;49.88;101809.66;5016914;28;45273;-90
2022/09/18 01:00:13;;;;;;;;;5.25;5.25;;;;;13.33;50.09;101816.69;5021998;28;45360;-91
2022/09/18 01:02:41;;;;;;;;;5.00;5.00;;;;;13.38;50.40;101828.16;5004293;28;48362;-90
2022/09/18 01:05:08;;;;;;;;;4.00;4.00;;;;;13.38;50.36;101829.03;5003698;28;45459;-90
2022/09/18 01:08:03;;;;;;;;;5.00;4.00;;;;;13.38;50.58;101825.53;5004542;28;44827;-90
2022/09/18 01:10:47;;;;;;;;;4.25;3.25;;;;;13.38;50.46;101829.03;5021740;28;45482;-90
2022/09/18 01:13:22;;;;;;;;;6.00;5.25;;;;;13.37;50.60;101827.28;5003764;28;47179;-89
2022/09/18 01:16:03;;;;;;;;;4.00;4.00;;;;;13.35;50.72;101829.03;5003331;28;45510;-90
2022/09/18 01:19:09;;;;;;;;;2.00;2.00;;;;;13.33;51.18;101819.34;5004320;28;45297;-90
2022/09/18 01:21:49;;;;;;;;;5.75;5.50;;;;;13.30;51.52;101825.50;5004107;28;45335;-91
2022/09/18 01:24:44;;;;;;;;;6.75;6.00;;;;;13.29;51.45;101823.75;5004483;28;48108;-90
2022/09/18 01:27:48;;;;;;;;;6.00;6.00;;;;;13.22;51.62;101804.28;5005015;28;45415;-90
2022/09/18 01:30:13;;;;;;;;;6.50;5.25;;;;;13.19;51.44;101799.00;4929432;28;45371;-90
2022/09/18 01:32:45;;;;;;;;;5.00;5.00;;;;;13.23;51.05;101818.38;4977570;28;44810;-91
2022/09/18 01:35:12;;;;;;;;;4.00;4.00;;;;;13.21;51.22;101814.88;5004407;28;47218;-91
2022/09/18 01:37:47;;;;;;;;;6.75;5.50;;;;;13.08;51.41;101791.94;5006256;28;45533;-91
2022/09/18 01:40:16;;;;;;;;;7.00;6.00;;;;;13.17;51.33;101815.72;5005247;28;45338;-90
2022/09/18 01:42:45;;;;;;;;;6.25;6.00;;;;;13.11;51.65;101819.25;5002883;28;45486;-90
2022/09/18 01:45:15;;;;;;;;;8.75;7.75;;;;;13.01;51.30;101806.88;5004471;28;47000;-90
2022/09/18 01:47:49;;;;;;;;;6.00;5.00;;;;;13.07;51.84;101817.50;5000876;28;46330;-90
2022/09/18 01:50:16;;;;;;;;;7.00;6.00;;;;;13.03;51.71;101813.06;5001193;28;45371;-90
2022/09/18 01:52:54;;;;;;;;;5.25;5.25;;;;;13.02;51.42;101808.66;5001304;28;45585;-91
2022/09/18 01:55:23;;;;;;;;;6.00;6.00;;;;;13.01;51.55;101812.16;5000994;28;48635;-90
2022/09/18 01:57:59;;;;;;;;;7.00;5.50;;;;;13.00;51.81;101813.91;5001119;28;45324;-92
2022/09/18 02:00:25;;;;;;;;;7.25;5.75;;;;;12.90;51.61;101800.66;4993883;28;45471;-90
2022/09/18 02:03:07;;;;;;;;;11.25;6.00;;;;;12.89;51.99;101798.91;4999696;28;45684;-90
2022/09/18 02:05:39;;;;;;;;;9.00;7.00;;;;;12.92;52.04;101802.44;4999400;28;48467;-90
2022/09/18 02:08:14;;;;;;;;;5.50;4.00;;;;;12.91;51.96;101799.78;5000274;28;45322;-91
2022/09/18 02:10:47;;;;;;;;;5.00;5.00;;;;;12.87;51.75;101801.53;5000150;28;45405;-91
2022/09/18 02:13:16;;;;;;;;;6.00;3.00;;;;;12.80;51.76;101800.66;4999510;28;45351;-90
2022/09/18 02:15:46;;;;;;;;;5.25;5.00;;;;;12.79;52.09;101801.50;4999553;28;47065;-90
2022/09/18 02:18:21;;;;;;;;;8.50;5.00;;;;;12.79;51.87;101798.00;5000941;28;45304;-90
2022/09/18 02:20:46;;;;;;;;;4.50;4.50;;;;;12.77;52.09;101805.88;4999473;28;45443;-90
2022/09/18 02:23:13;;;;;;;;;5.50;5.50;;;;;12.74;51.99;101803.25;4999532;28;45453;-90
2022/09/18 02:25:50;;;;;;;;;6.75;6.00;;;;;12.68;52.12;101800.59;5000853;28;46256;-91
2022/09/18 02:28:20;;;;;;;;;6.00;6.00;;;;;12.63;52.34;101798.78;5001560;28;45210;-90
2022/09/18 02:30:46;;;;;;;;;6.75;4.00;;;;;12.57;52.59;101799.66;5004842;28;45415;-90
2022/09/18 02:33:27;;;;;;;;;5.75;5.00;;;;;12.56;52.35;101804.06;5004961;28;45218;-90
2022/09/18 02:36:28;;;;;;;;;5.50;4.00;;;;;12.55;52.63;101798.75;5004730;28;48372;-91
2022/09/18 02:39:18;;;;;;;;;4.50;4.00;;;;;12.49;52.88;101796.09;5004599;28;45266;-90
2022/09/18 02:42:01;;;;;;;;;4.25;4.00;;;;;12.49;52.87;101804.91;5007222;28;45426;-90
2022/09/18 02:44:52;;;;;;;;;3.25;3.25;;;;;12.45;53.26;101799.56;5006232;28;45579;-91
2022/09/18 02:47:32;;;;;;;;;3.75;2.25;;;;;12.40;53.37;101799.53;5005914;28;47277;-90
2022/09/18 02:50:30;;;;;;;;;2.75;2.75;;;;;12.37;53.33;101788.97;5006006;28;45386;-90
2022/09/18 02:53:09;;;;;;;;;3.00;3.00;;;;;12.40;53.32;101798.66;4992916;28;45450;-90
2022/09/18 02:56:21;;;;;;;;;5.75;4.00;;;;;12.38;53.76;101798.66;5004242;28;46025;-90
2022/09/18 02:58:53;;;;;;;;;3.75;3.00;;;;;12.32;53.77;101782.78;5003927;28;48331;-91
2022/09/18 03:01:20;;;;;;;;;3.00;3.00;;;;;12.30;54.12;101781.91;5005302;28;45495;-91
2022/09/18 03:03:46;;;;;;;;;4.00;3.00;;;;;12.36;54.08;101788.09;5008066;28;45363;-90
2022/09/18 03:06:12;;;;;;;;;5.25;3.75;;;;;12.29;53.91;101777.47;5009291;28;45414;-92
2022/09/18 03:08:39;;;;;;;;;4.00;4.00;;;;;12.34;54.21;101789.81;5022263;28;46976;-90
2022/09/18 03:11:05;;;;;;;;;3.00;3.00;;;;;12.32;54.02;101783.69;5019203;28;45282;-91
2022/09/18 03:13:31;;;;;;;;;3.25;3.25;;;;;12.30;54.29;101771.34;5005390;28;45240;-90
2022/09/18 03:15:56;;;;;;;;;4.25;4.25;;;;;12.33;54.20;101777.50;5007235;28;45494;-91
2022/09/18 03:18:22;;;;;;;;;4.25;4.25;;;;;12.34;54.30;101773.09;5021183;28;47115;-88
2022/09/18 03:20:48;;;;;;;;;3.50;3.50;;;;;12.33;54.23;101774.88;5013627;28;45357;-90
2022/09/18 03:23:13;;;;;;;;;2.50;2.50;;;;;12.34;54.07;101776.63;5007299;28;45442;-90
2022/09/18 03:25:38;;;;;;;;;3.00;3.00;;;;;12.28;54.25;101766.03;5007264;28;45546;-90
2022/09/18 03:28:04;;;;;;;;;4.00;3.75;;;;;12.24;53.93;101763.38;5012181;28;47194;-90
2022/09/18 03:30:30;;;;;;;;;3.75;3.75;;;;;12.21;54.26;101758.06;5004010;28;45885;-90
2022/09/18 03:32:55;;;;;;;;;4.00;4.00;;;;;12.30;54.24;101768.69;5006266;28;45461;-89
2022/09/18 03:35:21;;;;;;;;;5.50;4.50;;;;;12.25;54.42;101767.78;5014320;28;44783;-89
2022/09/18 03:37:47;;;;;;;;;6.75;5.50;;;;;12.28;54.42;101773.97;5005604;28;48085;-90
2022/09/18 03:40:14;;;;;;;;;6.00;5.75;;;;;12.25;54.45;101770.44;4992098;28;45273;-89
2022/09/18 03:42:43;;;;;;;;;6.00;6.00;;;;;12.11;54.53;101752.75;5007041;28;45259;-90
2022/09/18 03:45:10;;;;;;;;;4.75;4.25;;;;;12.14;54.67;101747.47;5007433;28;45454;-90
2022/09/18 03:47:35;;;;;;;;;3.25;3.25;;;;;12.17;54.74;101758.94;5017526;28;47361;-91
2022/09/18 03:50:00;;;;;;;;;5.50;5.50;;;;;12.07;54.94;101734.22;4986570;28;45576;-90
2022/09/18 03:52:26;;;;;;;;;5.75;4.00;;;;;12.13;54.37;101752.75;5004841;28;45905;-90
2022/09/18 03:54:53;;;;;;;;;5.00;5.00;;;;;12.17;54.75;101764.22;4993166;28;45572;-90
2022/09/18 03:57:19;;;;;;;;;3.25;3.25;;;;;12.10;54.85;101750.97;4994211;28;45461;-89
2022/09/18 03:59:44;;;;;;;;;4.00;4.00;;;;;12.10;54.74;101765.94;5005917;28;45675;-89
2022/09/18 04:02:10;;;;;;;;;4.00;4.00;;;;;12.09;54.79;101766.81;5009352;28;45552;-88
2022/09/18 04:04:35;;;;;;;;;5.50;5.50;;;;;12.07;55.07;101774.69;5004635;28;45472;-89
2022/09/18 04:07:01;;;;;;;;;5.00;5.00;;;;;11.98;54.53;101757.94;5021998;28;45235;-89
2022/09/18 04:09:26;;;;;;;;;4.50;4.25;;;;;12.02;54.75;101773.78;4992972;28;45238;-89
2022/09/18 04:11:51;;;;;;;;;4.50;4.50;;;;;11.93;55.07;101764.94;4985000;28;45375;-90
2022/09/18 04:14:17;;;;;;;;;5.75;5.50;;;;;11.96;54.97;101763.19;4985109;28;45558;-90
2022/09/18 04:16:42;;;;;;;;;2.50;1.50;;;;;11.95;55.17;101768.44;5002663;28;48166;-90
2022/09/18 04:19:08;;;;;;;;;5.00;5.00;;;;;11.84;55.03;101748.13;5005716;28;46108;-90
2022/09/18 04:21:33;;;;;;;;;4.75;3.75;;;;;11.83;55.21;101754.28;4993741;28;45383;-88
2022/09/18 04:23:59;;;;;;;;;4.50;4.00;;;;;11.87;55.10;101760.50;5011278;28;46183;-90
2022/09/18 04:26:25;;;;;;;;;3.00;2.00;;;;;11.85;55.25;101755.16;4973695;28;47097;-89
2022/09/18 04:28:51;;;;;;;;;4.75;3.75;;;;;11.86;55.23;101762.22;5006449;28;45526;-90
2022/09/18 04:31:17;;;;;;;;;4.00;3.75;;;;;11.75;55.47;101744.53;4986972;28;45350;-90
2022/09/18 04:33:42;;;;;;;;;3.75;3.75;;;;;11.77;55.38;101748.97;4984540;28;45690;-90
2022/09/18 04:36:08;;;;;;;;;3.00;3.00;;;;;11.81;55.73;101768.31;5002365;28;46970;-89
2022/09/18 04:38:33;;;;;;;;;4.00;4.00;;;;;11.79;55.66;101765.69;4993461;28;45262;-89
2022/09/18 04:40:59;;;;;;;;;4.00;4.00;;;;;11.72;55.69;101763.88;4991196;28;45524;-89
2022/09/18 04:43:26;;;;;;;;;5.25;3.75;;;;;11.75;55.87;101771.78;4998888;28;45570;-92
2022/09/18 04:45:52;;;;;;;;;5.00;3.00;;;;;11.67;56.09;101763.81;5009082;28;46574;-93
2022/09/18 04:48:19;;;;;;;;;4.00;4.00;;;;;11.71;56.27;101770.03;4992618;28;45460;-95
2022/09/18 04:50:45;;;;;;;;;5.25;4.50;;;;;11.75;56.32;101776.19;5007825;28;45392;-94
2022/09/18 04:53:11;;;;;;;;;5.00;4.25;;;;;11.74;56.62;101783.22;5001393;28;45491;-92
2022/09/18 04:55:38;;;;;;;;;4.00;4.00;;;;;11.76;56.65;101772.66;5001309;28;47639;-89
2022/09/18 04:58:04;;;;;;;;;7.75;7.25;;;;;11.77;56.46;101771.81;5008441;28;45281;-90
2022/09/18 05:00:30;;;;;;;;;3.25;3.25;;;;;11.74;56.65;101774.44;5022612;28;44621;-92
2022/09/18 05:02:55;;;;;;;;;4.25;4.25;;;;;11.75;56.44;101773.56;5012180;28;45306;-89
2022/09/18 05:05:21;;;;;;;;;5.00;4.50;;;;;11.76;56.65;101781.50;5019903;28;47590;-90
2022/09/18 05:07:46;;;;;;;;;4.25;4.00;;;;;11.69;56.60;101775.28;5018952;28;44621;-90
2022/09/18 05:10:12;;;;;;;;;4.00;4.00;;;;;11.75;56.72;101776.19;5022988;28;44845;-90
2022/09/18 05:12:43;;;;;;;;;4.00;4.00;;;;;11.70;56.55;101774.38;5007581;28;45392;-89
2022/09/18 05:15:10;;;;;;;;;3.75;3.00;;;;;11.66;56.55;101771.72;5009103;28;48233;-87
2022/09/18 05:17:38;;;;;;;;;3.00;3.00;;;;;11.68;56.60;101777.88;5035700;28;44718;-88
2022/09/18 05:20:05;;;;;;;;;3.00;3.00;;;;;11.66;56.29;101783.16;5006459;28;45498;-88
2022/09/18 05:22:31;;;;;;;;;4.00;2.75;;;;;11.62;56.61;101786.63;5014733;28;45462;-89
2022/09/18 05:24:56;;;;;;;;;4.25;3.00;;;;;11.60;56.74;101792.75;4999718;28;46914;-88
2022/09/18 05:27:21;;;;;;;;;5.00;3.25;;;;;11.53;56.53;101777.78;4988017;28;45303;-89
2022/09/18 05:29:47;;;;;;;;;4.25;3.75;;;;;11.48;56.64;101777.72;5019364;28;45170;-89
2022/09/18 05:32:12;;;;;;;;;5.00;4.75;;;;;11.50;56.64;101797.09;4997829;28;45273;-89
2022/09/18 05:34:38;;;;;;;;;4.50;4.00;;;;;11.47;56.75;101795.31;5006672;28;47110;-89
2022/09/18 05:37:03;;;;;;;;;2.25;2.25;;;;;11.46;56.69;101795.28;5007960;28;45326;-89
2022/09/18 05:39:30;;;;;;;;;4.00;4.00;;;;;11.40;56.98;101785.56;5021017;28;45234;-88
2022/09/18 05:41:55;;;;;;;;;3.00;3.00;;;;;11.43;56.68;101793.50;4989444;28;45326;-87
2022/09/18 05:44:21;;;;;;;;;5.25;4.25;;;;;11.36;56.91;101786.41;5016888;28;45302;-84
2022/09/18 05:46:47;;;;;;;;;6.25;4.00;;;;;11.31;56.84;101776.69;4988682;28;45182;-86
2022/09/18 05:49:12;;;;;;;;;2.75;2.75;;;;;11.34;57.09;101784.63;5017470;28;44857;-87
2022/09/18 05:51:38;;;;;;;;;6.25;5.50;;;;;11.35;57.17;101787.25;5016250;28;44869;-85
2022/09/18 05:54:04;;;;;;;;;4.50;4.50;;;;;11.34;57.19;101790.78;5023824;28;45417;-85
2022/09/18 05:56:30;;;;;;;;;4.50;4.00;;;;;11.31;57.17;101785.47;5018230;28;45272;-90
2022/09/18 05:58:56;;;;;;;;;4.00;3.00;;;;;11.29;57.31;101789.84;5003931;28;45308;-86
2022/09/18 06:01:21;;;;;;;;;3.50;2.00;;;;;11.23;57.01;101780.13;5001203;28;45411;-86
2022/09/18 06:03:50;;;;;;;;;3.50;3.25;;;;;11.32;57.38;101802.19;5006321;28;45317;-89
2022/09/18 06:06:15;;;;;;;;;4.50;3.50;;;;;11.27;57.39;101786.31;4998101;28;45230;-89
2022/09/18 06:08:41;;;;;;;;;5.00;4.00;;;;;11.33;57.37;101804.81;4987601;28;45378;-87
2022/09/18 06:11:07;;;;;;;;;5.25;5.25;;;;;11.29;57.47;101794.25;4998133;28;45882;-89
2022/09/18 06:13:32;;;;;;;;;5.00;3.75;;;;;11.34;57.68;101800.44;4992306;28;45573;-89
2022/09/18 06:15:58;;;;;;;;;4.00;4.00;;;;;11.31;57.77;101808.31;5005844;28;45476;-88
2022/09/18 06:18:24;;;;;;;;;4.00;4.00;;;;;11.29;57.76;101795.13;4987014;28;45308;-85
2022/09/18 06:20:55;;;;;;;;;4.75;4.00;;;;;11.28;57.71;101798.63;4985467;28;45580;-86
2022/09/18 06:23:22;;;;;;;;;6.50;5.25;;;;;11.34;57.78;101811.00;5008885;28;45316;-89
2022/09/18 06:25:54;;;;;;;;;3.50;3.50;;;;;11.31;57.79;101795.16;4992514;28;45324;-83
2022/09/18 06:28:20;;;;;;;;;5.25;5.25;;;;;11.34;57.70;101792.53;4980891;28;45381;-90
2022/09/18 06:30:45;;;;;;;;;5.00;4.00;;;;;11.41;57.69;101799.63;4991216;28;45263;-87
2022/09/18 06:33:10;;;;;;;;;7.25;4.75;;;;;11.41;57.70;101799.63;4985296;28;46925;-89
2022/09/18 06:35:39;;;;;;;;;4.00;3.00;;;;;11.40;57.54;101792.59;4993570;28;45302;-88
2022/09/18 06:38:05;;;;;;;;;4.00;2.25;;;;;11.50;57.76;101810.28;5005295;28;45448;-88
2022/09/18 06:40:32;;;;;;;;;3.00;3.00;;;;;11.39;57.99;101794.34;5021633;28;45463;-88
2022/09/18 06:43:00;;;;;;;;;3.75;3.75;;;;;11.51;57.64;101804.13;5023099;28;46510;-88
2022/09/18 06:45:26;;;;;;;;;3.00;3.00;;;;;11.47;57.73;101808.50;5006711;28;45633;-85
2022/09/18 06:47:53;;;;;;;;;3.00;3.00;;;;;11.54;57.85;101811.16;5006430;28;45661;-89
2022/09/18 06:50:20;;;;;;;;;5.00;4.00;;;;;11.57;57.80;101820.00;5005290;28;46091;-86
2022/09/18 06:52:46;;;;;;;;;5.00;5.00;;;;;11.51;57.89;101803.25;5004989;28;47082;-85
2022/09/18 06:55:12;;;;;;;;;5.00;5.00;;;;;11.58;57.83;101800.69;5014055;28;45861;-83
2022/09/18 06:57:38;;;;;;;;;4.00;4.00;;;;;11.54;57.98;101782.16;5004787;28;45242;-86
2022/09/18 07:00:04;;;;;;;;;2.25;2.00;;;;;11.60;57.83;101782.22;5004451;28;45491;-86
2022/09/18 07:02:29;;;;;;;;;5.25;4.00;;;;;11.64;58.12;101791.94;5003055;28;47715;-84
2022/09/18 07:04:55;;;;;;;;;5.00;4.00;;;;;11.79;57.65;101810.53;5004283;28;45624;-84
2022/09/18 07:07:20;;;;;;;;;4.50;3.75;;;;;11.81;58.28;101807.91;5022374;28;45290;-90
2022/09/18 07:09:46;;;;;;;;;4.00;3.00;;;;;11.89;58.31;101816.78;5007581;28;45521;-89
2022/09/18 07:12:11;;;;;;;;;3.75;3.75;;;;;11.88;58.08;101797.44;5023409;28;47058;-88
2022/09/18 07:14:36;;;;;;;;;4.75;4.00;;;;;11.97;58.33;101812.44;5028608;28;44762;-89
2022/09/18 07:17:02;;;;;;;;;3.25;3.00;;;;;12.02;57.95;101817.78;5016888;28;45248;-89
2022/09/18 07:19:27;;;;;;;;;4.25;4.25;;;;;12.03;57.97;101814.25;5004323;28;45482;-89
2022/09/18 07:21:52;;;;;;;;;4.00;4.00;;;;;12.06;57.99;101809.03;5003834;28;48205;-89
2022/09/18 07:24:18;;;;;;;;;3.00;3.00;;;;;12.11;57.99;101820.50;5035904;28;45494;-89
2022/09/18 07:26:43;;;;;;;;;3.00;3.00;;;;;12.10;57.93;101806.38;5007381;28;45459;-89
2022/09/18 07:29:09;;;;;;;;;5.25;4.50;;;;;12.11;57.78;101802.91;5020493;28;45498;-89
2022/09/18 07:31:34;;;;;;;;;8.00;5.00;;;;;12.23;58.04;101820.56;5014378;28;48372;-90
2022/09/18 07:34:00;;;;;;;;;4.00;4.00;;;;;12.26;57.77;101815.31;5014231;28;45333;-89
2022/09/18 07:36:26;;;;;;;;;3.25;3.25;;;;;12.23;57.87;101809.13;4994642;28;45472;-90
2022/09/18 07:38:51;;;;;;;;;6.00;5.00;;;;;12.32;57.85;101812.72;5010407;28;45512;-89
2022/09/18 07:41:17;;;;;;;;;12.00;10.00;;;;;12.31;57.86;101800.38;5022539;28;45388;-90
2022/09/18 07:43:43;;;;;;;;;6.00;4.75;;;;;12.43;57.93;101815.44;5004938;28;45917;-89
2022/09/18 07:46:09;;;;;;;;;3.25;3.25;;;;;12.50;57.75;101821.63;5007239;28;45272;-90
2022/09/18 07:48:35;;;;;;;;;5.00;3.25;;;;;12.54;57.42;101823.41;5007794;28;45488;-90
2022/09/18 07:51:01;;;;;;;;;4.25;4.00;;;;;12.60;57.52;101823.44;5006412;28;47188;-91
2022/09/18 07:53:26;;;;;;;;;5.25;4.00;;;;;12.60;57.64;101807.59;5004702;28;45262;-89
2022/09/18 07:55:54;;;;;;;;;5.75;5.75;;;;;12.69;57.30;101822.59;5016462;28;45282;-89
2022/09/18 07:58:20;;;;;;;;;4.00;4.00;;;;;12.73;57.30;101819.09;5005092;28;45555;-89
2022/09/18 08:00:46;;;;;;;;;6.50;6.50;;;;;12.82;57.58;101824.41;5011759;28;47217;-89
2022/09/18 08:03:12;;;;;;;;;3.75;3.75;;;;;12.87;57.28;101825.31;5012773;28;45415;-87
2022/09/18 08:05:41;;;;;;;;;4.75;4.75;;;;;12.91;57.05;101826.22;5005157;28;45237;-89
2022/09/18 08:08:12;;;;;;;;;6.00;4.00;;;;;12.94;56.94;101820.97;5005778;28;45381;-89
2022/09/18 08:10:40;;;;;;;;;4.75;4.25;;;;;12.99;57.17;101828.03;5005280;28;47169;-90
2022/09/18 08:13:06;;;;;;;;;5.75;5.75;;;;;13.06;57.39;101828.91;5006572;28;46012;-89
2022/09/18 08:15:33;;;;;;;;;3.25;2.00;;;;;13.08;57.10;101823.66;5036439;28;45418;-88
2022/09/18 08:17:59;;;;;;;;;3.25;3.25;;;;;13.19;57.48;101824.56;5054805;28;44805;-87
2022/09/18 08:20:24;;;;;;;;;5.00;5.00;;;;;13.26;56.80;101839.63;5020982;28;46679;-87
2022/09/18 08:22:50;;;;;;;;;5.25;4.00;;;;;13.28;56.76;101829.91;5023486;28;44726;-87
2022/09/18 08:25:16;;;;;;;;;2.00;2.00;;;;;13.35;56.89;101823.75;5038724;28;44714;-86
2022/09/18 08:27:41;;;;;;;;;3.75;3.75;;;;;13.43;56.83;101827.28;5021075;28;45538;-88
2022/09/18 08:30:09;;;;;;;;;5.75;3.50;;;;;13.50;56.67;101825.56;5006554;28;48315;-88
2022/09/18 08:32:35;;;;;;;;;5.00;3.75;;;;;13.56;56.68;101825.56;5021164;28;45561;-89
2022/09/18 08:35:01;;;;;;;;;4.00;4.00;;;;;13.67;56.37;101829.09;5006151;28;45273;-88
2022/09/18 08:37:28;;;;;;;;;4.00;4.00;;;;;13.75;56.31;101820.28;5005340;28;46160;-89
2022/09/18 08:39:54;;;;;;;;;5.50;5.50;;;;;13.86;56.03;101823.81;5015404;28;45421;-89
2022/09/18 08:42:29;;;;;;;;;32.25;28.75;;;;;13.92;56.45;101820.28;5019489;28;45683;-89
2022/09/18 08:45:04;;;;;;;;;3.75;3.75;;;;;14.07;55.96;101809.69;5008703;28;45424;-89
2022/09/18 08:47:43;;;;;;;;;3.75;3.00;;;;;14.20;56.04;101813.22;5010766;28;45443;-88
2022/09/18 08:50:31;;;;;;;;;3.00;3.00;;;;;14.32;55.66;101815.81;5030991;28;45452;-89
2022/09/18 08:53:27;;;;;;;;;4.00;4.00;;;;;14.47;55.48;101825.50;4999637;28;45167;-89
2022/09/18 08:55:54;;;;;;;;;4.00;4.00;;;;;14.61;55.21;101822.84;5001474;28;45501;-88
2022/09/18 08:58:29;;;;;;;;;2.50;2.00;;;;;14.69;54.56;101819.28;5025247;28;45308;-89
2022/09/18 09:01:01;;;;;;;;;5.00;3.50;;;;;14.73;54.26;101815.75;5007894;28;48217;-89
2022/09/18 09:03:50;;;;;;;;;3.75;2.50;;;;;14.87;54.48;101820.13;5007944;28;44813;-88
2022/09/18 09:07:02;;;;;;;;;3.00;2.00;;;;;14.99;54.10;101826.25;5013555;28;45270;-89
2022/09/18 09:09:49;;;;;;;;;2.50;2.25;;;;;15.10;53.67;101822.66;5034703;28;45794;-89
2022/09/18 09:12:23;;;;;;;;;4.00;3.50;;;;;15.20;53.30;101813.75;5029291;28;46965;-89
2022/09/18 09:15:14;;;;;;;;;2.25;2.25;;;;;15.29;52.96;101818.13;5026081;28;45313;-88
2022/09/18 09:18:01;;;;;;;;;3.75;3.00;;;;;15.40;52.58;101811.88;5025281;28;45431;-89
2022/09/18 09:20:45;;;;;;;;;4.75;4.75;;;;;15.49;52.49;101810.91;5042301;28;44877;-87
2022/09/18 09:23:33;;;;;;;;;0.00;0.00;;;;;15.58;52.19;101812.63;5021627;28;46664;-88
2022/09/18 09:26:08;;;;;;;;;3.00;3.00;;;;;15.64;51.16;101800.19;5021377;28;45261;-87
2022/09/18 09:28:45;;;;;;;;;3.00;3.00;;;;;15.76;51.15;101801.91;5021464;28;45379;-88
2022/09/18 09:31:13;;;;;;;;;2.00;2.00;;;;;15.84;50.63;101802.72;5020205;28;45285;-88
2022/09/18 09:33:51;;;;;;;;;1.25;1.25;;;;;15.91;50.76;101797.38;5033501;28;47002;-89
2022/09/18 09:36:21;;;;;;;;;4.25;3.00;;;;;16.00;50.58;101794.63;5010061;28;45467;-89
2022/09/18 09:39:00;;;;;;;;;3.50;3.50;;;;;16.12;50.08;101791.84;5011804;28;45313;-87
2022/09/18 09:41:45;;;;;;;;;2.00;2.00;;;;;16.21;49.75;101791.75;5047869;28;45603;-90
2022/09/18 09:44:29;;;;;;;;;2.00;2.00;;;;;16.33;49.26;101801.34;5016852;28;47626;-87
2022/09/18 09:47:32;;;;;;;;;2.50;2.25;;;;;16.41;48.73;101793.31;5018722;28;44656;-86
2022/09/18 09:50:07;;;;;;;;;5.00;3.00;;;;;16.54;48.70;101794.94;5024409;28;45267;-88
2022/09/18 09:52:35;;;;;;;;;3.00;3.00;;;;;16.63;48.20;101791.31;5024128;28;45195;-88
2022/09/18 09:55:19;;;;;;;;;2.00;2.00;;;;;16.71;47.70;101795.63;5032390;28;47266;-89
2022/09/18 09:58:00;;;;;;;;;4.25;4.25;;;;;16.81;47.58;101799.06;5029198;28;44590;-88
2022/09/18 10:00:32;;;;;;;;;3.25;3.00;;;;;16.91;47.29;101798.06;5010611;28;45364;-89
2022/09/18 10:03:31;;;;;;;;;2.25;2.25;;;;;17.05;46.79;101797.00;5010135;28;44853;-89
2022/09/18 10:05:57;;;;;;;;;2.67;2.67;;;;;17.16;46.17;101789.72;5035961;28;46780;-87
2022/09/18 10:08:34;;;;;;;;;2.00;2.00;;;;;17.26;45.97;101796.69;5021471;28;45271;-88
2022/09/18 10:11:09;;;;;;;;;4.00;4.00;;;;;17.36;46.15;101786.78;5014704;28;45383;-89
2022/09/18 10:13:40;;;;;;;;;3.00;3.00;;;;;17.51;45.62;101790.97;5011845;28;45250;-89
2022/09/18 10:16:20;;;;;;;;;2.00;2.00;;;;;17.61;44.83;101789.94;5004993;28;47269;-89
2022/09/18 10:18:47;;;;;;;;;1.00;1.00;;;;;17.74;44.32;101791.50;4993312;28;45293;-89
2022/09/18 10:21:15;;;;;;;;;3.00;2.00;;;;;17.83;44.09;101780.75;5021815;28;45336;-89
2022/09/18 10:23:47;;;;;;;;;1.00;1.00;;;;;17.95;43.98;101776.09;5003731;28;45450;-89
2022/09/18 10:26:36;;;;;;;;;2.00;2.00;;;;;18.08;43.87;101772.31;5020544;28;47597;-89
2022/09/18 10:29:01;;;;;;;;;2.00;1.00;;;;;18.20;43.66;101765.84;5005040;28;45536;-91
2022/09/18 10:31:50;;;;;;;;;1.00;1.00;;;;;18.33;43.51;101764.72;5020085;28;45361;-89
2022/09/18 10:34:39;;;;;;;;;3.00;3.00;;;;;18.49;43.08;101758.16;5005820;28;45627;-89
2022/09/18 10:37:12;;;;;;;;;3.00;2.00;;;;;18.62;42.72;101761.47;5021618;28;45974;-90
2022/09/18 10:39:47;;;;;;;;;1.67;1.67;;;;;18.82;42.31;101753.06;5003670;28;45529;-89
2022/09/18 10:42:17;;;;;;;;;3.33;2.00;;;;;18.98;41.85;101752.72;5003851;28;45534;-89
2022/09/18 10:44:50;;;;;;;;;3.00;2.00;;;;;19.14;41.71;101763.03;4990290;28;45804;-88
2022/09/18 10:47:15;;;;;;;;;3.67;1.67;;;;;19.26;42.45;101759.19;5002877;28;47065;-89
2022/09/18 10:49:48;;;;;;;;;1.00;1.00;;;;;19.35;41.51;101758.97;5016402;28;45477;-90
2022/09/18 10:52:21;;;;;;;;;1.33;1.33;;;;;19.46;41.54;101756.06;5024939;28;45498;-89
2022/09/18 10:54:57;;;;;;;;;3.00;2.00;;;;;19.56;41.25;101760.22;5012984;28;45392;-86
2022/09/18 10:57:28;;;;;;;;;1.67;1.67;;;;;19.65;40.68;101766.28;5011087;28;47409;-86
2022/09/18 10:59:53;;;;;;;;;3.00;1.33;;;;;19.76;40.73;101758.91;5033647;28;45580;-87
2022/09/18 11:02:23;;;;;;;;;1.67;1.67;;;;;19.92;40.31;101754.91;5033830;28;45181;-86
2022/09/18 11:04:49;;;;;;;;;2.33;1.00;;;;;20.09;40.60;101740.22;5012908;28;45856;-86
2022/09/18 11:07:16;;;;;;;;;2.00;2.00;;;;;20.23;40.23;101744.28;5011849;28;46993;-87
2022/09/18 11:09:43;;;;;;;;;2.67;2.67;;;;;20.38;40.26;101737.59;5006151;28;46093;-91
2022/09/18 11:12:21;;;;;;;;;1.33;1.00;;;;;20.54;39.61;101747.91;5009423;28;44683;-87
2022/09/18 11:14:55;;;;;;;;;2.00;2.00;;;;;20.54;39.31;101740.75;5038471;28;45328;-91
2022/09/18 11:17:25;;;;;;;;;2.67;2.33;;;;;20.48;39.20;101752.47;5005494;28;48254;-90
2022/09/18 11:19:55;;;;;;;;;420.25;360.50;;;;;20.49;38.86;101735.47;5005667;28;45991;-93
2022/09/18 11:22:41;;;;;;;;;10.50;9.00;;;;;20.69;38.99;101742.97;5005936;28;45389;-92
2022/09/18 11:25:13;;;;;;;;;89.50;78.00;;;;;20.78;38.62;101741.81;4992515;28;45840;-91
2022/09/18 11:27:51;;;;;;;;;4.00;3.00;;;;;20.86;38.57;101728.19;5004986;28;48064;-93
2022/09/18 11:30:33;;;;;;;;;140.00;125.67;;;;;20.95;38.26;101735.06;5005318;28;45293;-90
2022/09/18 11:33:23;;;;;;;;;10.75;9.25;;;;;21.07;38.66;101738.22;5021598;28;45214;-84
2022/09/18 11:35:56;;;;;;;;;3.67;2.67;;;;;21.29;38.03;101729.50;5004348;28;45753;-87
2022/09/18 11:38:22;;;;;;;;;2.33;2.33;;;;;21.49;37.89;101734.22;5003676;28;45761;-88
2022/09/18 11:40:54;;;;;;;;;2.00;2.00;;;;;21.64;37.39;101730.16;5003668;28;45341;-88